sensor_id;sensor_type;location;lat;lon;timestamp;P1;durP1;ratioP1;P2;durP2;ratioP2
63112;SDS011;49206;48.020;21.378;2023-02-28T00:00:10;12.50;;;6.38;;
63112;SDS011;49206;48.020;21.378;2023-02-28T00:01:14;10.75;;;5.55;;
63112;SDS011;49206;48.020;21.378;2023-02-28T00:02:17;11.60;;;5.38;;
63112;SDS011;49206;48.020;21.378;2023-02-28T00:03:20;11.80;;;7.53;;
63112;SDS011;49206;48.020;21.378;2023-02-28T00:04:22;12.13;;;5.88;;
63112;SDS011;49206;48.020;21.378;2023-02-28T00:05:25;8.93;;;5.28;;
63112;SDS011;49206;48.020;21.378;2023-02-28T00:06:28;9.32;;;5.45;;
63112;SDS011;49206;48.020;21.378;2023-02-28T00:07:31;10.65;;;6.10;;
63112;SDS011;49206;48.020;21.378;2023-02-28T00:08:34;10.75;;;5.75;;
63112;SDS011;49206;48.020;21.378;2023-02-28T00:09:36;12.65;;;6.00;;
63112;SDS011;49206;48.020;21.378;2023-02-28T00:10:39;11.50;;;5.72;;
63112;SDS011;49206;48.020;21.378;2023-02-28T00:11:41;11.20;;;6.03;;
63112;SDS011;49206;48.020;21.378;2023-02-28T00:12:43;11.90;;;6.13;;
63112;SDS011;49206;48.020;21.378;2023-02-28T00:13:46;10.98;;;5.45;;
63112;SDS011;49206;48.020;21.378;2023-02-28T00:14:49;12.77;;;6.18;;
63112;SDS011;49206;48.020;21.378;2023-02-28T00:15:59;11.88;;;5.88;;
63112;SDS011;49206;48.020;21.378;2023-02-28T00:17:03;11.32;;;6.18;;
63112;SDS011;49206;48.020;21.378;2023-02-28T00:18:06;9.57;;;5.63;;
63112;SDS011;49206;48.020;21.378;2023-02-28T00:19:09;12.38;;;6.30;;
63112;SDS011;49206;48.020;21.378;2023-02-28T00:20:12;9.18;;;5.43;;
63112;SDS011;49206;48.020;21.378;2023-02-28T00:21:15;10.48;;;5.88;;
63112;SDS011;49206;48.020;21.378;2023-02-28T00:23:22;10.57;;;5.18;;
63112;SDS011;49206;48.020;21.378;2023-02-28T00:24:25;9.25;;;5.38;;
63112;SDS011;49206;48.020;21.378;2023-02-28T00:25:27;9.20;;;5.80;;
63112;SDS011;49206;48.020;21.378;2023-02-28T00:26:29;7.07;;;4.95;;
63112;SDS011;49206;48.020;21.378;2023-02-28T00:27:32;11.77;;;6.43;;
63112;SDS011;49206;48.020;21.378;2023-02-28T00:28:35;8.73;;;5.85;;
63112;SDS011;49206;48.020;21.378;2023-02-28T00:29:38;11.18;;;5.30;;
63112;SDS011;49206;48.020;21.378;2023-02-28T00:30:40;9.85;;;4.78;;
63112;SDS011;49206;48.020;21.378;2023-02-28T00:31:43;8.85;;;5.43;;
63112;SDS011;49206;48.020;21.378;2023-02-28T00:32:46;14.20;;;6.22;;
63112;SDS011;49206;48.020;21.378;2023-02-28T00:33:48;11.52;;;6.35;;
63112;SDS011;49206;48.020;21.378;2023-02-28T00:34:51;12.23;;;6.22;;
63112;SDS011;49206;48.020;21.378;2023-02-28T00:36:00;12.00;;;6.38;;
63112;SDS011;49206;48.020;21.378;2023-02-28T00:37:11;10.65;;;5.82;;
63112;SDS011;49206;48.020;21.378;2023-02-28T00:38:14;13.65;;;6.20;;
63112;SDS011;49206;48.020;21.378;2023-02-28T00:39:17;10.77;;;5.90;;
63112;SDS011;49206;48.020;21.378;2023-02-28T00:40:20;9.38;;;5.20;;
63112;SDS011;49206;48.020;21.378;2023-02-28T00:41:22;10.25;;;6.07;;
63112;SDS011;49206;48.020;21.378;2023-02-28T00:42:25;12.40;;;6.70;;
63112;SDS011;49206;48.020;21.378;2023-02-28T00:43:27;13.77;;;6.72;;
63112;SDS011;49206;48.020;21.378;2023-02-28T00:44:30;12.05;;;6.47;;
63112;SDS011;49206;48.020;21.378;2023-02-28T00:45:33;8.73;;;5.32;;
63112;SDS011;49206;48.020;21.378;2023-02-28T00:46:35;9.10;;;5.90;;
63112;SDS011;49206;48.020;21.378;2023-02-28T00:47:38;10.00;;;5.82;;
63112;SDS011;49206;48.020;21.378;2023-02-28T00:48:41;12.63;;;6.45;;
63112;SDS011;49206;48.020;21.378;2023-02-28T00:49:43;10.80;;;5.80;;
63112;SDS011;49206;48.020;21.378;2023-02-28T00:50:47;11.45;;;6.47;;
63112;SDS011;49206;48.020;21.378;2023-02-28T00:51:52;15.18;;;6.25;;
63112;SDS011;49206;48.020;21.378;2023-02-28T00:52:55;12.00;;;7.25;;
63112;SDS011;49206;48.020;21.378;2023-02-28T00:53:58;13.50;;;6.25;;
63112;SDS011;49206;48.020;21.378;2023-02-28T00:55:00;12.32;;;6.72;;
63112;SDS011;49206;48.020;21.378;2023-02-28T00:56:02;13.25;;;6.65;;
63112;SDS011;49206;48.020;21.378;2023-02-28T00:57:05;13.60;;;7.15;;
63112;SDS011;49206;48.020;21.378;2023-02-28T00:58:08;14.57;;;6.97;;
63112;SDS011;49206;48.020;21.378;2023-02-28T00:59:11;11.07;;;6.40;;
63112;SDS011;49206;48.020;21.378;2023-02-28T01:00:15;13.75;;;6.32;;
63112;SDS011;49206;48.020;21.378;2023-02-28T01:01:17;11.07;;;6.45;;
63112;SDS011;49206;48.020;21.378;2023-02-28T01:02:20;9.70;;;6.13;;
63112;SDS011;49206;48.020;21.378;2023-02-28T01:03:24;14.50;;;6.80;;
63112;SDS011;49206;48.020;21.378;2023-02-28T01:04:26;13.43;;;6.28;;
63112;SDS011;49206;48.020;21.378;2023-02-28T01:05:28;10.55;;;6.35;;
63112;SDS011;49206;48.020;21.378;2023-02-28T01:06:31;11.48;;;6.30;;
63112;SDS011;49206;48.020;21.378;2023-02-28T01:07:34;13.02;;;6.10;;
63112;SDS011;49206;48.020;21.378;2023-02-28T01:08:36;12.02;;;5.90;;
63112;SDS011;49206;48.020;21.378;2023-02-28T01:09:38;12.57;;;6.18;;
63112;SDS011;49206;48.020;21.378;2023-02-28T01:10:41;10.05;;;5.68;;
63112;SDS011;49206;48.020;21.378;2023-02-28T01:11:44;11.80;;;6.00;;
63112;SDS011;49206;48.020;21.378;2023-02-28T01:12:47;12.10;;;6.43;;
63112;SDS011;49206;48.020;21.378;2023-02-28T01:13:50;12.25;;;6.25;;
63112;SDS011;49206;48.020;21.378;2023-02-28T01:14:52;10.10;;;5.75;;
63112;SDS011;49206;48.020;21.378;2023-02-28T01:15:55;10.45;;;5.70;;
63112;SDS011;49206;48.020;21.378;2023-02-28T01:16:58;13.50;;;7.05;;
63112;SDS011;49206;48.020;21.378;2023-02-28T01:18:01;11.05;;;5.95;;
63112;SDS011;49206;48.020;21.378;2023-02-28T01:19:05;13.20;;;5.72;;
63112;SDS011;49206;48.020;21.378;2023-02-28T01:20:08;13.43;;;6.10;;
63112;SDS011;49206;48.020;21.378;2023-02-28T01:21:16;13.88;;;5.53;;
63112;SDS011;49206;48.020;21.378;2023-02-28T01:22:19;10.63;;;6.43;;
63112;SDS011;49206;48.020;21.378;2023-02-28T01:23:22;8.50;;;6.38;;
63112;SDS011;49206;48.020;21.378;2023-02-28T01:24:28;11.70;;;5.40;;
63112;SDS011;49206;48.020;21.378;2023-02-28T01:25:31;7.65;;;5.40;;
63112;SDS011;49206;48.020;21.378;2023-02-28T01:26:38;11.95;;;6.00;;
63112;SDS011;49206;48.020;21.378;2023-02-28T01:27:41;9.95;;;6.13;;
63112;SDS011;49206;48.020;21.378;2023-02-28T01:28:44;10.45;;;5.82;;
63112;SDS011;49206;48.020;21.378;2023-02-28T01:29:47;15.05;;;6.72;;
63112;SDS011;49206;48.020;21.378;2023-02-28T01:30:50;13.35;;;6.00;;
63112;SDS011;49206;48.020;21.378;2023-02-28T01:31:53;9.63;;;5.82;;
63112;SDS011;49206;48.020;21.378;2023-02-28T01:32:55;12.52;;;6.35;;
63112;SDS011;49206;48.020;21.378;2023-02-28T01:33:59;14.45;;;6.85;;
63112;SDS011;49206;48.020;21.378;2023-02-28T01:35:03;13.15;;;6.60;;
63112;SDS011;49206;48.020;21.378;2023-02-28T01:36:07;10.77;;;6.75;;
63112;SDS011;49206;48.020;21.378;2023-02-28T01:37:12;12.90;;;7.15;;
63112;SDS011;49206;48.020;21.378;2023-02-28T01:38:19;13.52;;;7.60;;
63112;SDS011;49206;48.020;21.378;2023-02-28T01:39:24;15.65;;;7.35;;
63112;SDS011;49206;48.020;21.378;2023-02-28T01:40:27;11.45;;;7.50;;
63112;SDS011;49206;48.020;21.378;2023-02-28T01:41:30;17.27;;;8.68;;
63112;SDS011;49206;48.020;21.378;2023-02-28T01:42:35;16.67;;;8.40;;
63112;SDS011;49206;48.020;21.378;2023-02-28T01:45:04;13.98;;;8.57;;
63112;SDS011;49206;48.020;21.378;2023-02-28T01:46:08;14.95;;;8.18;;
63112;SDS011;49206;48.020;21.378;2023-02-28T01:47:11;16.02;;;7.88;;
63112;SDS011;49206;48.020;21.378;2023-02-28T01:48:14;14.60;;;7.93;;
63112;SDS011;49206;48.020;21.378;2023-02-28T01:49:17;15.60;;;8.65;;
63112;SDS011;49206;48.020;21.378;2023-02-28T01:50:23;16.27;;;8.70;;
63112;SDS011;49206;48.020;21.378;2023-02-28T01:51:31;14.48;;;8.20;;
63112;SDS011;49206;48.020;21.378;2023-02-28T01:52:39;15.18;;;8.82;;
63112;SDS011;49206;48.020;21.378;2023-02-28T01:53:44;18.45;;;8.10;;
63112;SDS011;49206;48.020;21.378;2023-02-28T01:54:51;14.35;;;8.40;;
63112;SDS011;49206;48.020;21.378;2023-02-28T01:55:56;14.55;;;8.35;;
63112;SDS011;49206;48.020;21.378;2023-02-28T01:57:04;17.90;;;8.65;;
63112;SDS011;49206;48.020;21.378;2023-02-28T01:58:11;16.33;;;8.52;;
63112;SDS011;49206;48.020;21.378;2023-02-28T01:59:17;14.75;;;7.90;;
63112;SDS011;49206;48.020;21.378;2023-02-28T02:00:40;16.35;;;7.95;;
63112;SDS011;49206;48.020;21.378;2023-02-28T02:01:44;14.75;;;8.40;;
63112;SDS011;49206;48.020;21.378;2023-02-28T02:02:50;15.57;;;9.02;;
63112;SDS011;49206;48.020;21.378;2023-02-28T02:03:56;14.75;;;8.40;;
63112;SDS011;49206;48.020;21.378;2023-02-28T02:05:02;15.27;;;8.32;;
63112;SDS011;49206;48.020;21.378;2023-02-28T02:07:09;17.10;;;8.48;;
63112;SDS011;49206;48.020;21.378;2023-02-28T02:08:14;19.98;;;9.23;;
63112;SDS011;49206;48.020;21.378;2023-02-28T02:09:19;15.20;;;8.48;;
63112;SDS011;49206;48.020;21.378;2023-02-28T02:10:27;16.88;;;9.00;;
63112;SDS011;49206;48.020;21.378;2023-02-28T02:11:34;21.50;;;10.10;;
63112;SDS011;49206;48.020;21.378;2023-02-28T02:14:10;25.38;;;11.85;;
63112;SDS011;49206;48.020;21.378;2023-02-28T02:15:21;35.47;;;13.73;;
63112;SDS011;49206;48.020;21.378;2023-02-28T02:16:47;31.55;;;12.93;;
63112;SDS011;49206;48.020;21.378;2023-02-28T02:18:19;30.70;;;13.35;;
63112;SDS011;49206;48.020;21.378;2023-02-28T02:27:48;17.60;;;9.50;;
63112;SDS011;49206;48.020;21.378;2023-02-28T02:33:06;17.92;;;8.85;;
63112;SDS011;49206;48.020;21.378;2023-02-28T02:35:28;18.25;;;8.60;;
63112;SDS011;49206;48.020;21.378;2023-02-28T02:36:35;15.80;;;8.73;;
63112;SDS011;49206;48.020;21.378;2023-02-28T02:39:16;14.23;;;7.45;;
63112;SDS011;49206;48.020;21.378;2023-02-28T02:40:43;17.98;;;7.55;;
63112;SDS011;49206;48.020;21.378;2023-02-28T02:41:56;16.00;;;7.93;;
63112;SDS011;49206;48.020;21.378;2023-02-28T02:43:22;12.43;;;7.72;;
63112;SDS011;49206;48.020;21.378;2023-02-28T02:44:43;17.27;;;8.63;;
63112;SDS011;49206;48.020;21.378;2023-02-28T02:45:53;14.75;;;7.50;;
63112;SDS011;49206;48.020;21.378;2023-02-28T02:47:08;15.63;;;8.23;;
63112;SDS011;49206;48.020;21.378;2023-02-28T02:48:18;12.52;;;7.32;;
63112;SDS011;49206;48.020;21.378;2023-02-28T02:49:33;17.25;;;7.80;;
63112;SDS011;49206;48.020;21.378;2023-02-28T02:50:41;15.57;;;8.18;;
63112;SDS011;49206;48.020;21.378;2023-02-28T02:51:47;15.65;;;7.03;;
63112;SDS011;49206;48.020;21.378;2023-02-28T02:52:52;13.35;;;7.63;;
63112;SDS011;49206;48.020;21.378;2023-02-28T02:55:23;14.40;;;6.40;;
63112;SDS011;49206;48.020;21.378;2023-02-28T02:56:27;12.30;;;6.70;;
63112;SDS011;49206;48.020;21.378;2023-02-28T02:57:40;14.95;;;7.80;;
63112;SDS011;49206;48.020;21.378;2023-02-28T02:58:46;13.65;;;6.90;;
63112;SDS011;49206;48.020;21.378;2023-02-28T02:59:52;13.60;;;7.03;;
63112;SDS011;49206;48.020;21.378;2023-02-28T03:00:57;13.95;;;6.55;;
63112;SDS011;49206;48.020;21.378;2023-02-28T03:02:03;13.65;;;7.32;;
63112;SDS011;49206;48.020;21.378;2023-02-28T03:03:08;10.40;;;6.80;;
63112;SDS011;49206;48.020;21.378;2023-02-28T03:04:13;13.02;;;7.50;;
63112;SDS011;49206;48.020;21.378;2023-02-28T03:05:25;14.55;;;7.82;;
63112;SDS011;49206;48.020;21.378;2023-02-28T03:06:30;12.65;;;6.97;;
63112;SDS011;49206;48.020;21.378;2023-02-28T03:07:32;13.15;;;7.32;;
63112;SDS011;49206;48.020;21.378;2023-02-28T03:08:36;12.98;;;6.40;;
63112;SDS011;49206;48.020;21.378;2023-02-28T03:09:49;13.68;;;6.32;;
63112;SDS011;49206;48.020;21.378;2023-02-28T03:10:57;12.00;;;6.85;;
63112;SDS011;49206;48.020;21.378;2023-02-28T03:12:02;11.85;;;6.15;;
63112;SDS011;49206;48.020;21.378;2023-02-28T03:13:12;12.40;;;6.15;;
63112;SDS011;49206;48.020;21.378;2023-02-28T03:15:30;13.05;;;6.43;;
63112;SDS011;49206;48.020;21.378;2023-02-28T03:18:27;13.32;;;6.93;;
63112;SDS011;49206;48.020;21.378;2023-02-28T03:19:51;12.23;;;5.90;;
63112;SDS011;49206;48.020;21.378;2023-02-28T03:23:48;10.68;;;5.32;;
63112;SDS011;49206;48.020;21.378;2023-02-28T03:26:23;10.20;;;5.63;;
63112;SDS011;49206;48.020;21.378;2023-02-28T03:27:29;10.93;;;5.60;;
63112;SDS011;49206;48.020;21.378;2023-02-28T03:31:21;12.30;;;6.15;;
63112;SDS011;49206;48.020;21.378;2023-02-28T03:32:31;12.13;;;5.80;;
63112;SDS011;49206;48.020;21.378;2023-02-28T03:34:12;10.32;;;5.72;;
63112;SDS011;49206;48.020;21.378;2023-02-28T03:35:11;10.07;;;6.30;;
63112;SDS011;49206;48.020;21.378;2023-02-28T03:36:27;11.27;;;6.18;;
63112;SDS011;49206;48.020;21.378;2023-02-28T03:37:32;8.80;;;5.43;;
63112;SDS011;49206;48.020;21.378;2023-02-28T03:38:38;9.57;;;5.88;;
63112;SDS011;49206;48.020;21.378;2023-02-28T03:39:47;8.32;;;5.35;;
63112;SDS011;49206;48.020;21.378;2023-02-28T03:42:33;9.63;;;5.63;;
63112;SDS011;49206;48.020;21.378;2023-02-28T03:43:40;8.80;;;5.55;;
63112;SDS011;49206;48.020;21.378;2023-02-28T03:44:46;10.45;;;5.55;;
63112;SDS011;49206;48.020;21.378;2023-02-28T03:45:52;8.48;;;5.20;;
63112;SDS011;49206;48.020;21.378;2023-02-28T03:47:02;8.32;;;5.30;;
63112;SDS011;49206;48.020;21.378;2023-02-28T03:48:32;9.55;;;5.35;;
63112;SDS011;49206;48.020;21.378;2023-02-28T03:51:06;7.15;;;5.18;;
63112;SDS011;49206;48.020;21.378;2023-02-28T03:52:14;9.98;;;5.22;;
63112;SDS011;49206;48.020;21.378;2023-02-28T03:53:27;10.65;;;5.20;;
63112;SDS011;49206;48.020;21.378;2023-02-28T03:54:34;10.05;;;5.32;;
63112;SDS011;49206;48.020;21.378;2023-02-28T03:55:51;10.52;;;5.63;;
63112;SDS011;49206;48.020;21.378;2023-02-28T03:57:03;12.60;;;6.03;;
63112;SDS011;49206;48.020;21.378;2023-02-28T03:58:14;12.98;;;7.47;;
63112;SDS011;49206;48.020;21.378;2023-02-28T03:59:28;14.68;;;7.57;;
63112;SDS011;49206;48.020;21.378;2023-02-28T04:00:35;16.52;;;8.55;;
63112;SDS011;49206;48.020;21.378;2023-02-28T04:01:42;16.33;;;9.27;;
63112;SDS011;49206;48.020;21.378;2023-02-28T04:02:47;14.68;;;9.23;;
63112;SDS011;49206;48.020;21.378;2023-02-28T04:03:54;11.88;;;7.40;;
63112;SDS011;49206;48.020;21.378;2023-02-28T04:04:56;12.25;;;7.90;;
63112;SDS011;49206;48.020;21.378;2023-02-28T04:05:59;12.00;;;7.43;;
63112;SDS011;49206;48.020;21.378;2023-02-28T04:07:05;10.90;;;5.43;;
63112;SDS011;49206;48.020;21.378;2023-02-28T04:08:09;11.30;;;5.78;;
63112;SDS011;49206;48.020;21.378;2023-02-28T04:09:13;10.10;;;5.82;;
63112;SDS011;49206;48.020;21.378;2023-02-28T04:10:16;9.70;;;5.53;;
63112;SDS011;49206;48.020;21.378;2023-02-28T04:12:35;9.95;;;5.53;;
63112;SDS011;49206;48.020;21.378;2023-02-28T04:13:38;9.05;;;5.20;;
63112;SDS011;49206;48.020;21.378;2023-02-28T04:14:40;11.68;;;5.88;;
63112;SDS011;49206;48.020;21.378;2023-02-28T04:15:42;8.80;;;5.25;;
63112;SDS011;49206;48.020;21.378;2023-02-28T04:16:45;9.82;;;5.65;;
63112;SDS011;49206;48.020;21.378;2023-02-28T04:17:47;10.52;;;5.53;;
63112;SDS011;49206;48.020;21.378;2023-02-28T04:18:50;9.57;;;5.28;;
63112;SDS011;49206;48.020;21.378;2023-02-28T04:19:52;8.63;;;4.82;;
63112;SDS011;49206;48.020;21.378;2023-02-28T04:20:59;10.70;;;5.28;;
63112;SDS011;49206;48.020;21.378;2023-02-28T04:22:02;10.93;;;5.30;;
63112;SDS011;49206;48.020;21.378;2023-02-28T04:23:04;13.43;;;5.88;;
63112;SDS011;49206;48.020;21.378;2023-02-28T04:24:08;9.27;;;5.53;;
63112;SDS011;49206;48.020;21.378;2023-02-28T04:25:16;8.57;;;5.30;;
63112;SDS011;49206;48.020;21.378;2023-02-28T04:26:18;11.20;;;5.03;;
63112;SDS011;49206;48.020;21.378;2023-02-28T04:27:21;8.50;;;5.50;;
63112;SDS011;49206;48.020;21.378;2023-02-28T04:28:23;11.50;;;5.40;;
63112;SDS011;49206;48.020;21.378;2023-02-28T04:29:27;11.75;;;5.68;;
63112;SDS011;49206;48.020;21.378;2023-02-28T04:30:31;9.88;;;5.20;;
63112;SDS011;49206;48.020;21.378;2023-02-28T04:31:34;9.55;;;5.00;;
63112;SDS011;49206;48.020;21.378;2023-02-28T04:32:36;8.88;;;5.30;;
63112;SDS011;49206;48.020;21.378;2023-02-28T04:33:39;9.52;;;5.80;;
63112;SDS011;49206;48.020;21.378;2023-02-28T04:34:41;11.57;;;5.93;;
63112;SDS011;49206;48.020;21.378;2023-02-28T04:35:43;13.02;;;5.95;;
63112;SDS011;49206;48.020;21.378;2023-02-28T04:36:47;10.85;;;5.80;;
63112;SDS011;49206;48.020;21.378;2023-02-28T04:38:12;12.15;;;5.88;;
63112;SDS011;49206;48.020;21.378;2023-02-28T04:39:15;12.55;;;5.60;;
63112;SDS011;49206;48.020;21.378;2023-02-28T04:40:20;13.70;;;6.55;;
63112;SDS011;49206;48.020;21.378;2023-02-28T04:41:22;11.32;;;5.20;;
63112;SDS011;49206;48.020;21.378;2023-02-28T04:42:25;9.55;;;5.95;;
63112;SDS011;49206;48.020;21.378;2023-02-28T04:43:28;9.60;;;5.80;;
63112;SDS011;49206;48.020;21.378;2023-02-28T04:44:31;8.63;;;5.55;;
63112;SDS011;49206;48.020;21.378;2023-02-28T04:45:34;10.98;;;5.78;;
63112;SDS011;49206;48.020;21.378;2023-02-28T04:46:37;9.02;;;5.25;;
63112;SDS011;49206;48.020;21.378;2023-02-28T04:47:40;11.88;;;6.13;;
63112;SDS011;49206;48.020;21.378;2023-02-28T04:48:50;10.63;;;6.10;;
63112;SDS011;49206;48.020;21.378;2023-02-28T04:49:52;9.68;;;6.05;;
63112;SDS011;49206;48.020;21.378;2023-02-28T04:50:55;11.18;;;6.30;;
63112;SDS011;49206;48.020;21.378;2023-02-28T04:52:01;13.95;;;6.85;;
63112;SDS011;49206;48.020;21.378;2023-02-28T04:53:04;11.23;;;6.10;;
63112;SDS011;49206;48.020;21.378;2023-02-28T04:54:06;11.30;;;6.22;;
63112;SDS011;49206;48.020;21.378;2023-02-28T04:55:09;10.13;;;5.38;;
63112;SDS011;49206;48.020;21.378;2023-02-28T04:56:13;10.57;;;6.30;;
63112;SDS011;49206;48.020;21.378;2023-02-28T04:57:18;11.02;;;6.57;;
63112;SDS011;49206;48.020;21.378;2023-02-28T04:58:23;10.50;;;6.38;;
63112;SDS011;49206;48.020;21.378;2023-02-28T04:59:26;11.35;;;5.93;;
63112;SDS011;49206;48.020;21.378;2023-02-28T05:00:28;12.73;;;7.43;;
63112;SDS011;49206;48.020;21.378;2023-02-28T05:01:32;9.93;;;6.25;;
63112;SDS011;49206;48.020;21.378;2023-02-28T05:02:35;10.80;;;6.35;;
63112;SDS011;49206;48.020;21.378;2023-02-28T05:03:38;12.55;;;6.32;;
63112;SDS011;49206;48.020;21.378;2023-02-28T05:04:42;11.35;;;6.72;;
63112;SDS011;49206;48.020;21.378;2023-02-28T05:05:45;9.35;;;5.90;;
63112;SDS011;49206;48.020;21.378;2023-02-28T05:06:47;10.88;;;6.63;;
63112;SDS011;49206;48.020;21.378;2023-02-28T05:07:49;13.43;;;6.85;;
63112;SDS011;49206;48.020;21.378;2023-02-28T05:08:52;13.80;;;6.78;;
63112;SDS011;49206;48.020;21.378;2023-02-28T05:09:55;14.70;;;7.43;;
63112;SDS011;49206;48.020;21.378;2023-02-28T05:10:57;13.57;;;6.72;;
63112;SDS011;49206;48.020;21.378;2023-02-28T05:12:00;12.85;;;7.47;;
63112;SDS011;49206;48.020;21.378;2023-02-28T05:13:03;12.82;;;7.70;;
63112;SDS011;49206;48.020;21.378;2023-02-28T05:14:06;13.07;;;6.80;;
63112;SDS011;49206;48.020;21.378;2023-02-28T05:15:13;14.07;;;7.35;;
63112;SDS011;49206;48.020;21.378;2023-02-28T05:16:17;12.73;;;6.38;;
63112;SDS011;49206;48.020;21.378;2023-02-28T05:17:20;13.10;;;7.35;;
63112;SDS011;49206;48.020;21.378;2023-02-28T05:18:23;14.05;;;7.28;;
63112;SDS011;49206;48.020;21.378;2023-02-28T05:19:25;14.90;;;7.45;;
63112;SDS011;49206;48.020;21.378;2023-02-28T05:20:27;10.63;;;6.82;;
63112;SDS011;49206;48.020;21.378;2023-02-28T05:22:34;13.30;;;6.88;;
63112;SDS011;49206;48.020;21.378;2023-02-28T05:23:36;11.68;;;6.68;;
63112;SDS011;49206;48.020;21.378;2023-02-28T05:24:39;15.05;;;7.90;;
63112;SDS011;49206;48.020;21.378;2023-02-28T05:25:41;15.43;;;7.93;;
63112;SDS011;49206;48.020;21.378;2023-02-28T05:26:44;13.90;;;7.35;;
63112;SDS011;49206;48.020;21.378;2023-02-28T05:27:46;10.98;;;6.72;;
63112;SDS011;49206;48.020;21.378;2023-02-28T05:28:49;16.20;;;6.65;;
63112;SDS011;49206;48.020;21.378;2023-02-28T05:29:52;11.45;;;6.85;;
63112;SDS011;49206;48.020;21.378;2023-02-28T05:30:54;13.98;;;7.40;;
63112;SDS011;49206;48.020;21.378;2023-02-28T05:31:57;13.25;;;7.38;;
63112;SDS011;49206;48.020;21.378;2023-02-28T05:33:00;12.93;;;6.97;;
63112;SDS011;49206;48.020;21.378;2023-02-28T05:34:02;13.38;;;7.00;;
63112;SDS011;49206;48.020;21.378;2023-02-28T05:35:06;13.15;;;6.70;;
63112;SDS011;49206;48.020;21.378;2023-02-28T05:36:09;12.68;;;7.57;;
63112;SDS011;49206;48.020;21.378;2023-02-28T05:37:12;15.80;;;7.22;;
63112;SDS011;49206;48.020;21.378;2023-02-28T05:38:15;14.93;;;7.55;;
63112;SDS011;49206;48.020;21.378;2023-02-28T05:39:18;26.15;;;7.88;;
63112;SDS011;49206;48.020;21.378;2023-02-28T05:40:20;13.68;;;7.40;;
63112;SDS011;49206;48.020;21.378;2023-02-28T05:41:22;13.75;;;7.95;;
63112;SDS011;49206;48.020;21.378;2023-02-28T05:42:25;15.85;;;6.75;;
63112;SDS011;49206;48.020;21.378;2023-02-28T05:43:27;17.05;;;8.52;;
63112;SDS011;49206;48.020;21.378;2023-02-28T05:44:30;19.67;;;9.20;;
63112;SDS011;49206;48.020;21.378;2023-02-28T05:45:33;17.98;;;8.55;;
63112;SDS011;49206;48.020;21.378;2023-02-28T05:46:36;16.33;;;8.88;;
63112;SDS011;49206;48.020;21.378;2023-02-28T05:47:39;16.35;;;9.43;;
63112;SDS011;49206;48.020;21.378;2023-02-28T05:48:41;16.88;;;9.40;;
63112;SDS011;49206;48.020;21.378;2023-02-28T05:49:45;16.05;;;8.93;;
63112;SDS011;49206;48.020;21.378;2023-02-28T05:50:47;16.67;;;9.00;;
63112;SDS011;49206;48.020;21.378;2023-02-28T05:51:50;25.02;;;11.13;;
63112;SDS011;49206;48.020;21.378;2023-02-28T05:52:52;21.58;;;10.15;;
63112;SDS011;49206;48.020;21.378;2023-02-28T05:53:54;18.00;;;9.93;;
63112;SDS011;49206;48.020;21.378;2023-02-28T05:55:01;17.35;;;9.82;;
63112;SDS011;49206;48.020;21.378;2023-02-28T05:56:04;18.75;;;9.95;;
63112;SDS011;49206;48.020;21.378;2023-02-28T05:57:07;18.92;;;10.10;;
63112;SDS011;49206;48.020;21.378;2023-02-28T05:59:31;15.65;;;9.13;;
63112;SDS011;49206;48.020;21.378;2023-02-28T06:00:34;19.17;;;9.43;;
63112;SDS011;49206;48.020;21.378;2023-02-28T06:01:37;19.42;;;9.27;;
63112;SDS011;49206;48.020;21.378;2023-02-28T06:02:42;15.52;;;9.35;;
63112;SDS011;49206;48.020;21.378;2023-02-28T06:03:44;18.55;;;10.48;;
63112;SDS011;49206;48.020;21.378;2023-02-28T06:04:46;17.48;;;9.32;;
63112;SDS011;49206;48.020;21.378;2023-02-28T06:05:49;18.92;;;9.98;;
63112;SDS011;49206;48.020;21.378;2023-02-28T06:06:52;21.05;;;10.77;;
63112;SDS011;49206;48.020;21.378;2023-02-28T06:07:55;22.80;;;11.23;;
63112;SDS011;49206;48.020;21.378;2023-02-28T06:08:57;24.55;;;12.95;;
63112;SDS011;49206;48.020;21.378;2023-02-28T06:10:00;21.88;;;11.43;;
63112;SDS011;49206;48.020;21.378;2023-02-28T06:11:03;19.67;;;11.68;;
63112;SDS011;49206;48.020;21.378;2023-02-28T06:12:06;21.23;;;11.45;;
63112;SDS011;49206;48.020;21.378;2023-02-28T06:13:09;18.75;;;11.57;;
63112;SDS011;49206;48.020;21.378;2023-02-28T06:14:18;18.80;;;12.13;;
63112;SDS011;49206;48.020;21.378;2023-02-28T06:15:21;20.63;;;11.90;;
63112;SDS011;49206;48.020;21.378;2023-02-28T06:16:23;19.95;;;11.63;;
63112;SDS011;49206;48.020;21.378;2023-02-28T06:17:26;18.13;;;10.50;;
63112;SDS011;49206;48.020;21.378;2023-02-28T06:18:28;18.95;;;10.70;;
63112;SDS011;49206;48.020;21.378;2023-02-28T06:19:34;17.95;;;10.13;;
63112;SDS011;49206;48.020;21.378;2023-02-28T06:20:40;18.75;;;10.68;;
63112;SDS011;49206;48.020;21.378;2023-02-28T06:21:44;15.25;;;9.20;;
63112;SDS011;49206;48.020;21.378;2023-02-28T06:22:47;20.80;;;10.48;;
63112;SDS011;49206;48.020;21.378;2023-02-28T06:23:49;16.98;;;10.52;;
63112;SDS011;49206;48.020;21.378;2023-02-28T06:24:52;18.88;;;10.52;;
63112;SDS011;49206;48.020;21.378;2023-02-28T06:25:54;21.98;;;10.63;;
63112;SDS011;49206;48.020;21.378;2023-02-28T06:27:01;18.67;;;10.80;;
63112;SDS011;49206;48.020;21.378;2023-02-28T06:28:07;23.42;;;10.63;;
63112;SDS011;49206;48.020;21.378;2023-02-28T06:29:09;19.95;;;11.15;;
63112;SDS011;49206;48.020;21.378;2023-02-28T06:30:12;17.80;;;10.35;;
63112;SDS011;49206;48.020;21.378;2023-02-28T06:31:19;26.98;;;13.30;;
63112;SDS011;49206;48.020;21.378;2023-02-28T06:32:22;36.63;;;23.85;;
63112;SDS011;49206;48.020;21.378;2023-02-28T06:33:25;34.40;;;21.38;;
63112;SDS011;49206;48.020;21.378;2023-02-28T06:34:27;27.42;;;17.10;;
63112;SDS011;49206;48.020;21.378;2023-02-28T06:35:30;24.25;;;16.40;;
63112;SDS011;49206;48.020;21.378;2023-02-28T06:36:33;21.77;;;12.15;;
63112;SDS011;49206;48.020;21.378;2023-02-28T06:37:35;21.00;;;11.13;;
63112;SDS011;49206;48.020;21.378;2023-02-28T06:38:40;19.17;;;10.52;;
63112;SDS011;49206;48.020;21.378;2023-02-28T06:39:43;17.02;;;10.35;;
63112;SDS011;49206;48.020;21.378;2023-02-28T06:40:52;13.25;;;8.25;;
63112;SDS011;49206;48.020;21.378;2023-02-28T06:41:56;17.77;;;9.43;;
63112;SDS011;49206;48.020;21.378;2023-02-28T06:42:59;18.35;;;9.93;;
63112;SDS011;49206;48.020;21.378;2023-02-28T06:44:01;39.75;;;22.63;;
63112;SDS011;49206;48.020;21.378;2023-02-28T06:45:04;42.30;;;20.58;;
63112;SDS011;49206;48.020;21.378;2023-02-28T06:46:12;28.55;;;13.07;;
63112;SDS011;49206;48.020;21.378;2023-02-28T06:47:15;24.35;;;13.45;;
63112;SDS011;49206;48.020;21.378;2023-02-28T06:48:19;22.48;;;12.10;;
63112;SDS011;49206;48.020;21.378;2023-02-28T06:49:22;19.58;;;10.48;;
63112;SDS011;49206;48.020;21.378;2023-02-28T06:50:24;16.13;;;9.07;;
63112;SDS011;49206;48.020;21.378;2023-02-28T06:51:26;18.77;;;10.05;;
63112;SDS011;49206;48.020;21.378;2023-02-28T06:52:29;16.23;;;9.57;;
63112;SDS011;49206;48.020;21.378;2023-02-28T06:53:32;17.70;;;8.48;;
63112;SDS011;49206;48.020;21.378;2023-02-28T06:54:36;12.25;;;7.10;;
63112;SDS011;49206;48.020;21.378;2023-02-28T06:55:39;12.77;;;7.00;;
63112;SDS011;49206;48.020;21.378;2023-02-28T06:56:42;11.27;;;6.20;;
63112;SDS011;49206;48.020;21.378;2023-02-28T06:57:44;11.77;;;6.90;;